Time;durP1;ratioP1;P1;durP2;ratioP2;P2;SDS_P1;SDS_P2;PMS_P1;PMS_P2;Temp;Humidity;BMP_temperature;BMP_pressure;BME280_temperature;BME280_humidity;BME280_pressure;Samples;Min_cycle;Max_cycle;Signal;HPM_P1;HPM_P2
2023/06/01 00:04:18;;;;;;;5.75;3.28;;;;;;;14.78;72.04;102222.97;5071319;23;20664;-58
2023/06/01 00:14:19;;;;;;;4.85;3.33;;;;;;;14.50;74.17;102223.03;5203673;23;20026;-58
2023/06/01 00:16:45;;;;;;;4.28;3.45;;;;;;;14.50;73.81;102223.91;5272199;23;21299;-64
2023/06/01 00:19:13;;;;;;;4.43;3.10;;;;;;;14.56;74.61;102226.69;5126488;23;20170;-64
2023/06/01 00:21:38;;;;;;;4.68;3.30;;;;;;;14.46;75.06;102224.66;5313375;23;20067;-58
2023/06/01 00:29:08;;;;;;;5.50;3.70;;;;;;;14.46;74.30;102219.41;5292824;23;21247;-64
2023/06/01 00:31:34;;;;;;;5.40;3.50;;;;;;;14.42;73.98;102214.91;5158516;23;20058;-64
2023/06/01 00:33:59;;;;;;;4.50;3.45;;;;;;;14.26;73.56;102222.31;5258817;23;1119766;-64
2023/06/01 00:36:25;;;;;;;3.70;3.22;;;;;;;14.26;73.62;102221.41;5349343;23;20086;-59
2023/06/01 00:44:02;;;;;;;4.40;3.58;;;;;;;14.08;74.34;102212.16;5126632;23;20058;-59
2023/06/01 00:46:30;;;;;;;4.30;3.70;;;;;;;13.97;72.58;102218.78;5444893;23;20576;-59
2023/06/01 00:54:03;;;;;;;4.47;3.80;;;;;;;13.70;76.11;102221.38;5313611;23;20221;-58
2023/06/01 01:01:28;;;;;;;4.45;3.75;;;;;;;13.67;74.60;102219.59;5359803;23;20109;-59
2023/06/01 01:04:00;;;;;;;4.10;3.63;;;;;;;13.68;75.82;102228.31;5284917;23;20082;-59
2023/06/01 01:06:41;;;;;;;4.70;3.85;;;;;;;13.69;75.98;102231.00;5364496;23;21492;-58
2023/06/01 01:09:25;;;;;;;5.03;3.90;;;;;;;13.61;74.45;102229.84;4965905;28;20050;-58
2023/06/01 01:22:16;;;;;;;5.03;3.88;;;;;;;13.23;77.36;102238.13;5106393;23;20435;-59
2023/06/01 01:25:18;;;;;;;5.35;4.00;;;;;;;13.21;75.40;102231.09;4966281;28;20034;-58
2023/06/01 01:35:25;;;;;;;5.25;4.30;;;;;;;13.03;77.80;102226.06;5258184;23;20066;-58
2023/06/01 01:37:54;;;;;;;5.78;4.20;;;;;;;13.01;77.88;102226.00;5090054;23;20049;-58
2023/06/01 01:40:20;;;;;;;5.10;4.60;;;;;;;12.99;77.56;102232.03;5116789;23;20201;-58
2023/06/01 01:42:46;;;;;;;5.22;4.28;;;;;;;12.93;77.64;102234.41;5131955;23;20070;-58
2023/06/01 01:45:13;;;;;;;5.13;4.40;;;;;;;12.86;76.16;102235.91;5319264;23;20037;-59
2023/06/01 01:50:12;;;;;;;5.00;4.43;;;;;;;12.73;77.20;102237.22;5213327;23;20454;-58
2023/06/01 01:57:48;;;;;;;5.55;4.38;;;;;;;12.64;78.68;102239.47;5267056;23;20062;-59
2023/06/01 02:00:14;;;;;;;5.35;4.70;;;;;;;12.51;75.64;102249.47;5179992;23;20072;-58
2023/06/01 02:02:39;;;;;;;5.32;4.82;;;;;;;12.42;79.11;102240.38;5342316;23;20028;-58
2023/06/01 02:10:13;;;;;;;6.63;4.70;;;;;;;12.33;80.02;102240.91;5103155;23;20126;-59
2023/06/01 02:12:38;;;;;;;6.38;5.00;;;;;;;12.33;79.32;102233.97;5345720;23;20026;-58
2023/06/01 02:15:08;;;;;;;5.72;4.85;;;;;;;12.29;79.60;102239.00;5177858;23;20057;-58
2023/06/01 02:17:33;;;;;;;5.30;4.40;;;;;;;12.25;80.08;102232.78;5363932;23;20881;-58
2023/06/01 02:19:58;;;;;;;5.30;4.78;;;;;;;12.25;79.29;102238.03;5379103;23;20073;-58
2023/06/01 02:22:27;;;;;;;5.78;4.72;;;;;;;12.21;78.76;102232.59;5055507;23;20039;-58
2023/06/01 02:24:52;;;;;;;6.13;4.50;;;;;;;12.13;79.18;102234.91;5242160;23;20062;-59
2023/06/01 02:29:46;;;;;;;5.45;4.18;;;;;;;12.02;78.72;102230.97;5256228;23;21055;-58
2023/06/01 02:32:12;;;;;;;5.20;4.13;;;;;;;11.81;81.01;102231.84;5341209;23;20020;-58
2023/06/01 02:39:41;;;;;;;5.78;4.28;;;;;;;11.77;81.13;102229.94;4957342;28;20055;-58
2023/06/01 02:42:09;;;;;;;5.63;4.55;;;;;;;11.75;82.04;102223.78;5289427;23;20048;-58
2023/06/01 02:44:35;;;;;;;4.88;4.10;;;;;;;11.74;81.31;102227.22;5144216;23;21706;-58
2023/06/01 02:47:03;;;;;;;4.75;4.18;;;;;;;11.82;81.76;102231.91;5162234;23;20097;-58
2023/06/01 02:49:28;;;;;;;4.30;3.90;;;;;;;11.79;82.02;102228.31;5343631;23;20021;-58
2023/06/01 02:51:53;;;;;;;4.40;3.83;;;;;;;11.91;82.05;102236.63;5075849;23;20094;-58
2023/06/01 02:54:19;;;;;;;4.00;3.28;;;;;;;11.91;80.76;102231.41;5234637;23;20053;-58
2023/06/01 02:59:13;;;;;;;4.95;3.97;;;;;;;11.89;80.50;102235.69;5368321;23;21123;-58
2023/06/01 03:06:40;;;;;;;5.60;3.92;;;;;;;12.04;81.31;102239.78;5172317;23;20534;-58
2023/06/01 03:09:12;;;;;;;5.18;3.80;;;;;;;12.08;80.64;102237.34;4945226;28;20032;-58
2023/06/01 03:14:12;;;;;;;4.20;3.60;;;;;;;11.81;81.21;102237.97;5323509;23;20115;-58
2023/06/01 03:16:41;;;;;;;4.63;3.78;;;;;;;11.76;81.34;102236.00;5168344;23;20062;-58
2023/06/01 03:19:06;;;;;;;4.15;3.33;;;;;;;11.69;82.05;102233.94;5327737;23;21117;-58
2023/06/01 03:21:32;;;;;;;4.30;3.50;;;;;;;11.70;81.28;102239.22;5152219;23;20026;-58
2023/06/01 03:23:58;;;;;;;4.47;3.60;;;;;;;11.70;81.82;102243.56;5130306;23;20061;-58
2023/06/01 03:26:24;;;;;;;4.53;3.33;;;;;;;11.61;79.46;102231.91;4963512;28;20090;-58
2023/06/01 03:28:53;;;;;;;3.78;3.28;;;;;;;11.58;80.15;102233.53;4962581;28;20198;-58
2023/06/01 03:31:18;;;;;;;3.93;3.40;;;;;;;11.51;81.83;102229.75;5079178;23;20117;-58
2023/06/01 03:41:15;;;;;;;4.30;3.08;;;;;;;11.46;81.91;102241.72;5147533;23;20562;-58
2023/06/01 03:43:40;;;;;;;4.20;3.35;;;;;;;11.41;82.75;102246.75;5154958;23;20125;-58
2023/06/01 03:48:41;;;;;;;3.78;2.80;;;;;;;11.53;82.19;102238.56;5069206;23;20122;-63
2023/06/01 03:51:06;;;;;;;4.80;2.90;;;;;;;11.59;80.97;102240.53;4949290;28;20027;-63
2023/06/01 03:56:07;;;;;;;4.68;3.45;;;;;;;11.64;81.33;102245.13;5081770;23;20768;-63
2023/06/01 04:01:05;;;;;;;4.95;2.90;;;;;;;11.60;82.01;102248.44;5232579;23;20074;-58
2023/06/01 04:05:59;;;;;;;4.18;2.70;;;;;;;11.56;81.82;102241.28;5336950;23;20051;-58
2023/06/01 04:08:26;;;;;;;4.43;3.08;;;;;;;11.54;82.19;102249.88;5032959;23;20352;-63
2023/06/01 04:15:58;;;;;;;4.07;2.85;;;;;;;11.53;82.57;102251.59;5218970;23;20429;-58
2023/06/01 04:21:06;;;;;;;4.20;2.83;;;;;;;11.68;82.54;102240.91;5064192;23;1132752;-58
2023/06/01 04:26:04;;;;;;;4.18;2.92;;;;;;;11.58;83.18;102246.56;5245068;23;20435;-58
2023/06/01 04:28:32;;;;;;;3.63;2.80;;;;;;;11.65;82.47;102253.84;5111354;23;20033;-58
2023/06/01 04:31:02;;;;;;;4.18;3.00;;;;;;;11.66;82.79;102250.41;5469828;23;20144;-59
2023/06/01 04:33:28;;;;;;;3.90;3.13;;;;;;;11.75;82.86;102255.13;5199096;23;20063;-59
2023/06/01 04:35:53;;;;;;;4.43;3.00;;;;;;;11.76;82.40;102249.97;5144362;23;20062;-58
2023/06/01 04:45:53;;;;;;;3.92;3.15;;;;;;;11.85;79.83;102267.72;5177442;23;20466;-58
2023/06/01 04:53:19;;;;;;;5.22;3.10;;;;;;;11.82;80.98;102259.75;5279925;23;20054;-58
2023/06/01 04:55:44;;;;;;;4.15;3.03;;;;;;;11.82;80.53;102268.47;5175858;23;20070;-59
2023/06/01 05:05:38;;;;;;;5.45;3.50;;;;;;;11.78;80.00;102260.47;5135834;23;20533;-58
2023/06/01 05:08:03;;;;;;;4.85;3.50;;;;;;;11.82;81.17;102249.31;5144737;23;20030;-59
2023/06/01 05:10:29;;;;;;;4.70;3.72;;;;;;;11.82;79.36;102255.41;5161557;23;20161;-58
2023/06/01 05:12:55;;;;;;;4.13;3.55;;;;;;;11.76;80.74;102249.03;5166026;23;20062;-58
2023/06/01 05:17:58;;;;;;;4.75;3.53;;;;;;;11.70;81.80;102247.06;5143050;23;20063;-58
2023/06/01 05:20:27;;;;;;;4.40;3.30;;;;;;;11.74;81.62;102248.97;5230035;23;20475;-58
2023/06/01 05:25:23;;;;;;;5.00;3.58;;;;;;;11.72;81.80;102249.78;5211305;23;20098;-59
2023/06/01 05:27:48;;;;;;;4.57;3.45;;;;;;;11.74;82.21;102245.50;5287022;23;20029;-58
2023/06/01 05:30:14;;;;;;;5.32;3.63;;;;;;;11.74;82.41;102245.50;4978191;28;20050;-58
2023/06/01 05:32:39;;;;;;;5.43;3.83;;;;;;;11.77;81.73;102249.09;5126332;23;21208;-58
2023/06/01 05:40:10;;;;;;;5.25;3.45;;;;;;;11.97;81.66;102254.31;5173764;23;20088;-58
2023/06/01 05:42:36;;;;;;;4.72;3.80;;;;;;;11.99;81.22;102247.41;5251820;23;20036;-59
2023/06/01 05:47:41;;;;;;;4.60;3.72;;;;;;;12.03;79.41;102251.94;5150217;23;20053;-59
2023/06/01 05:52:42;;;;;;;4.43;3.70;;;;;;;12.05;80.15;102252.00;5018438;23;20533;-58
2023/06/01 06:02:39;;;;;;;5.05;3.83;;;;;;;11.92;80.55;102261.94;4976893;28;20584;-58
2023/06/01 06:07:40;;;;;;;4.10;3.30;;;;;;;11.82;79.06;102259.75;5327147;23;20026;-59
2023/06/01 06:10:09;;;;;;;4.15;3.60;;;;;;;11.87;79.04;102259.94;5393830;23;20596;-58
2023/06/01 06:12:35;;;;;;;5.32;3.65;;;;;;;11.96;80.17;102258.66;4977249;28;20029;-58
2023/06/01 06:17:30;;;;;;;4.78;3.58;;;;;;;11.89;82.14;102260.88;5229104;23;20265;-58
2023/06/01 06:19:56;;;;;;;5.20;3.60;;;;;;;11.82;81.87;102259.75;5169000;23;20702;-59
2023/06/01 06:22:21;;;;;;;4.55;3.47;;;;;;;11.87;81.10;102268.66;5270136;23;20058;-58
2023/06/01 06:24:47;;;;;;;5.25;3.63;;;;;;;11.96;80.19;102268.19;5219147;23;20403;-58
2023/06/01 06:27:12;;;;;;;4.63;3.78;;;;;;;12.09;79.82;102269.56;5188727;23;20063;-59
2023/06/01 06:32:08;;;;;;;4.30;3.53;;;;;;;12.29;80.54;102273.88;5190037;23;20061;-59
2023/06/01 06:34:35;;;;;;;4.30;3.58;;;;;;;12.34;80.89;102266.22;5259163;23;20067;-59
2023/06/01 06:37:07;;;;;;;5.40;3.53;;;;;;;12.35;79.99;102263.69;5265033;23;20063;-59
2023/06/01 06:39:37;;;;;;;4.53;3.35;;;;;;;12.51;79.83;102254.72;5329910;23;21227;-59
2023/06/01 06:44:37;;;;;;;4.82;3.72;;;;;;;12.65;79.89;102257.81;5287529;23;20054;-59
2023/06/01 06:47:06;;;;;;;4.63;3.85;;;;;;;12.78;79.83;102253.06;5009827;23;20039;-96
2023/06/01 06:49:34;;;;;;;4.47;3.80;;;;;;;12.94;78.84;102257.16;5019404;28;20075;-96
2023/06/01 06:51:59;;;;;;;4.07;3.35;;;;;;;13.08;79.26;102253.31;5018646;28;20286;-96
2023/06/01 06:54:25;;;;;;;4.60;3.33;;;;;;;13.14;77.27;102258.75;4965542;28;20453;-96
2023/06/01 06:56:50;;;;;;;4.75;4.00;;;;;;;13.30;78.54;102261.91;4961430;28;20070;-96
2023/06/01 06:59:17;;;;;;;4.63;3.22;;;;;;;13.42;76.01;102266.72;4961737;28;20065;-96
2023/06/01 07:01:46;;;;;;;4.22;3.55;;;;;;;13.43;75.41;102271.13;4969786;28;20027;-96
2023/06/01 07:04:25;;;;;;;;;;;;;;;13.43;75.96;102276.38;4987358;28;20031;-96
2023/06/01 07:06:51;;;;;;;4.18;3.42;;;;;;;13.38;75.76;102279.72;5215621;22;20846;-59
2023/06/01 07:11:53;;;;;;;3.95;3.55;;;;;;;13.24;77.27;102270.44;5083497;23;20094;-96
2023/06/01 07:17:40;;;;;;;4.90;3.63;;;;;;;13.48;76.75;102267.81;4992693;23;20032;-59
2023/06/01 07:20:07;;;;;;;5.38;3.58;;;;;;;13.57;77.20;102269.88;5290175;23;20022;-59
2023/06/01 07:25:05;;;;;;;4.60;3.50;;;;;;;13.80;75.55;102264.50;4981362;28;20065;-59
2023/06/01 07:27:31;;;;;;;5.28;3.42;;;;;;;13.90;74.59;102263.97;5049096;23;20107;-59
2023/06/01 07:29:56;;;;;;;4.78;3.50;;;;;;;13.88;73.35;102253.44;5257184;23;20090;-59
2023/06/01 07:32:22;;;;;;;5.10;3.80;;;;;;;13.98;77.63;102265.13;5415335;23;20089;-59
2023/06/01 07:34:59;;;;;;;4.05;3.47;;;;;;;14.13;76.07;102262.09;5251137;23;20098;-96
2023/06/01 07:37:50;;;;;;;4.18;3.50;;;;;;;14.26;75.18;102259.03;4993299;28;20126;-96
2023/06/01 07:44:18;;;;;;;;;;;;;;;14.65;73.44;102257.59;4995115;28;20110;-96
2023/06/01 07:47:05;;;;;;;4.72;3.40;;;;;;;14.46;75.88;102261.38;4980004;28;19925;-96
2023/06/01 07:50:06;;;;;;;4.10;3.38;;;;;;;14.63;72.87;102256.66;4992882;28;20026;-96
2023/06/01 07:53:08;;;;;;;5.43;3.72;;;;;;;14.73;71.53;102256.09;4981635;28;20045;-96
2023/06/01 07:59:06;;;;;;;4.35;3.28;;;;;;;15.19;73.15;102260.84;4975878;28;20049;-96
2023/06/01 08:01:32;;;;;;;4.80;3.40;;;;;;;15.34;70.36;102258.66;5101625;23;20112;-65
2023/06/01 08:03:58;;;;;;;4.20;3.58;;;;;;;15.41;68.70;102257.97;5192344;23;20040;-59
2023/06/01 08:06:38;;;;;;;4.30;3.25;;;;;;;15.48;68.30;102257.28;5107027;23;20462;31
2023/06/01 08:09:03;;;;;;;4.05;3.10;;;;;;;15.40;68.87;102258.78;5150286;23;20051;-65
2023/06/01 08:21:42;;;;;;;4.95;3.40;;;;;;;15.76;68.97;102247.47;5130970;23;20070;-64
2023/06/01 08:24:08;;;;;;;4.78;3.30;;;;;;;15.84;67.16;102246.78;5327462;23;20856;-58
2023/06/01 08:26:34;;;;;;;5.20;3.85;;;;;;;15.72;66.28;102249.97;4972364;28;20042;-59
2023/06/01 08:31:29;;;;;;;5.35;3.75;;;;;;;15.95;67.67;102245.31;5156205;23;20063;-59
2023/06/01 08:33:55;;;;;;;4.30;3.80;;;;;;;16.21;68.21;102252.94;5036162;23;20046;-59
2023/06/01 08:36:20;;;;;;;4.20;3.50;;;;;;;16.45;68.18;102248.22;5196742;23;20042;-63
2023/06/01 08:38:46;;;;;;;4.00;3.40;;;;;;;16.59;68.57;102248.50;4972867;28;20069;-63
2023/06/01 08:41:21;;;;;;;5.15;3.97;;;;;;;16.50;65.63;102246.56;5307446;23;20166;-59
2023/06/01 08:44:02;;;;;;;3.75;3.35;;;;;;;16.64;67.54;102248.59;5169775;23;20082;-59
2023/06/01 08:46:31;;;;;;;6.32;4.03;;;;;;;16.74;64.27;102240.03;5228023;22;20051;-63
2023/06/01 08:57:06;;;;;;;5.07;3.78;;;;;;;16.58;66.88;102228.28;5165891;23;19926;-60
2023/06/01 09:02:08;;;;;;;4.65;3.88;;;;;;;16.90;67.39;102229.84;5220067;23;20062;-60
2023/06/01 09:04:41;;;;;;;5.05;4.07;;;;;;;17.02;65.46;102224.84;5228342;23;20534;-60
2023/06/01 09:07:07;;;;;;;5.10;4.00;;;;;;;16.99;65.86;102230.03;5137525;23;20036;-59
2023/06/01 09:09:32;;;;;;;4.97;4.00;;;;;;;17.26;65.64;102231.41;5162327;23;20051;-59
2023/06/01 09:14:31;;;;;;;4.80;3.97;;;;;;;17.66;62.28;102217.16;5297176;23;20062;-59
2023/06/01 09:21:59;;;;;;;4.57;4.00;;;;;;;18.21;60.48;102209.22;5069858;23;20055;-59
2023/06/01 09:24:26;;;;;;;4.72;3.70;;;;;;;18.11;58.33;102217.00;5112139;23;20069;-60
2023/06/01 09:26:58;;;;;;;4.68;3.83;;;;;;;18.17;62.02;102210.06;5099350;23;20061;-59
2023/06/01 09:29:24;;;;;;;4.35;3.80;;;;;;;18.20;61.71;102207.44;5113114;23;20098;-59
2023/06/01 09:31:49;;;;;;;4.78;4.03;;;;;;;18.30;62.83;102207.59;5141124;23;20051;-59
2023/06/01 09:34:18;;;;;;;4.68;4.18;;;;;;;18.27;61.24;102207.56;5279774;23;21196;-59
2023/06/01 09:36:52;;;;;;;4.90;4.00;;;;;;;18.32;62.69;102197.94;5158940;23;20054;-64
2023/06/01 09:39:20;;;;;;;4.32;3.53;;;;;;;18.60;59.12;102197.41;4991404;28;20768;-64
2023/06/01 09:41:59;;;;;;;4.38;3.92;;;;;;;18.76;58.98;102193.19;5136312;23;20619;-60
2023/06/01 09:44:29;;;;;;;4.88;4.07;;;;;;;18.68;60.07;102192.22;5153322;23;20133;-60
2023/06/01 09:46:59;;;;;;;4.95;4.15;;;;;;;18.56;60.59;102187.69;5139006;23;20058;-60
2023/06/01 09:52:05;;;;;;;4.70;4.20;;;;;;;18.79;59.41;102184.44;5266214;23;20165;-60
2023/06/01 09:54:42;;;;;;;5.05;3.90;;;;;;;18.88;60.87;102189.84;5090813;23;20051;-60
2023/06/01 09:57:08;;;;;;;5.35;3.75;;;;;;;19.07;59.74;102192.66;5126358;23;20061;-60
2023/06/01 09:59:40;;;;;;;4.30;3.90;;;;;;;19.25;58.78;102195.50;5143893;23;20063;-59
2023/06/01 10:06:57;;;;;;;4.55;3.90;;;;;;;19.10;54.23;102188.31;5236228;23;20046;-59
2023/06/01 10:09:24;;;;;;;4.47;3.88;;;;;;;19.39;58.19;102185.06;5062427;23;20039;-59
2023/06/01 10:11:53;;;;;;;5.13;3.70;;;;;;;19.53;55.26;102185.16;5096185;23;21683;-59
2023/06/01 10:14:20;;;;;;;4.25;3.60;;;;;;;19.55;57.80;102182.53;4951461;28;20043;-60
2023/06/01 10:20:15;;;;;;;4.45;3.85;;;;;;;19.63;58.11;102176.41;5293040;23;20058;-60
2023/06/01 10:22:42;;;;;;;4.95;3.72;;;;;;;19.86;56.87;102174.88;5062613;23;20137;-59
2023/06/01 10:30:12;;;;;;;5.68;4.03;;;;;;;20.33;54.20;102163.63;5091730;23;20051;-59
2023/06/01 10:32:37;;;;;;;4.65;4.25;;;;;;;20.08;52.09;102160.84;4974269;28;20057;-60
2023/06/01 10:35:07;;;;;;;4.33;3.87;;;;;;;20.00;55.07;102167.00;5128191;23;20055;-60
2023/06/01 10:37:33;;;;;;;4.60;4.10;;;;;;;20.12;54.76;102167.94;4961478;28;20039;-60
2023/06/01 10:50:14;;;;;;;4.43;3.90;;;;;;;20.27;52.33;102169.75;5285089;23;20742;-58
2023/06/01 10:52:40;;;;;;;5.00;4.50;;;;;;;20.18;52.38;102169.75;5168798;23;20145;-60
2023/06/01 10:55:05;;;;;;;5.10;4.50;;;;;;;20.33;53.97;102158.31;5216988;23;20837;-65
2023/06/01 11:00:26;;;;;;;5.15;4.15;;;;;;;20.81;53.33;102172.66;5065122;23;20340;-60
2023/06/01 11:03:01;;;;;;;5.43;4.00;;;;;;;20.97;52.67;102168.25;4972727;28;21201;-60
2023/06/01 11:05:33;;;;;;;5.97;4.32;;;;;;;20.87;50.59;102163.84;5126148;23;20057;-60
2023/06/01 11:07:58;;;;;;;4.32;3.90;;;;;;;20.91;52.69;102160.28;4962889;28;20074;-60
2023/06/01 11:10:59;;;;;;;5.53;4.07;;;;;;;21.23;53.02;102154.13;4962367;28;20038;-60
2023/06/01 11:16:13;;;;;;;4.70;4.20;;;;;;;21.48;51.03;102151.50;5439931;23;20025;-60
2023/06/01 11:18:44;;;;;;;5.75;4.72;;;;;;;21.54;50.87;102143.56;5093787;23;20209;-60
2023/06/01 11:21:16;;;;;;;3.90;3.50;;;;;;;21.67;53.40;102142.66;5176627;23;20526;-60
2023/06/01 11:28:48;;;;;;;4.47;4.05;;;;;;;21.93;49.64;102141.72;5271095;23;20050;-60
2023/06/01 11:31:16;;;;;;;4.35;3.95;;;;;;;21.97;50.60;102135.50;5061732;23;20010;-60
2023/06/01 11:36:16;;;;;;;4.70;3.83;;;;;;;22.16;50.44;102141.63;4935222;28;20047;-66
2023/06/01 11:38:42;;;;;;;4.90;4.10;;;;;;;22.35;49.27;102134.50;5031357;23;20078;-61
2023/06/01 11:41:09;;;;;;;4.78;3.63;;;;;;;22.47;48.03;102143.28;5201434;23;20053;-60
2023/06/01 11:46:04;;;;;;;4.63;3.80;;;;;;;22.63;50.19;102133.47;5213772;23;20021;-60
2023/06/01 11:48:29;;;;;;;5.32;3.30;;;;;;;22.96;48.87;102135.00;5144100;23;20043;-60
2023/06/01 11:50:55;;;;;;;4.10;3.70;;;;;;;23.02;48.10;102131.41;4953934;28;20088;-60
2023/06/01 11:53:22;;;;;;;4.00;3.47;;;;;;;23.03;47.43;102130.53;4953987;28;20070;-61
2023/06/01 11:55:49;;;;;;;4.88;3.15;;;;;;;22.88;48.05;102128.84;4953116;28;20034;-60
2023/06/01 11:58:23;;;;;;;5.05;3.42;;;;;;;23.07;47.88;102130.50;4954584;28;20053;-60
2023/06/01 12:00:48;;;;;;;3.75;3.33;;;;;;;23.16;48.79;102116.28;4955029;28;20451;-60
2023/06/01 12:03:14;;;;;;;4.10;3.50;;;;;;;23.25;47.29;102120.63;5167857;23;20031;-60
2023/06/01 12:05:49;;;;;;;4.50;3.47;;;;;;;23.15;49.33;102117.16;4991956;23;20054;-60
2023/06/01 12:10:47;;;;;;;4.05;3.30;;;;;;;23.16;45.78;102118.03;5031069;23;20067;-61
2023/06/01 12:17:12;;;;;;;4.20;3.27;;;;;;;23.65;46.32;102116.69;4941310;29;20044;-96
2023/06/01 12:20:40;;;;;;;;;;;;;;;;;;;;;
2023/06/01 12:29:45;;;;;;;3.58;2.97;;;;;;;23.55;44.87;102107.91;5218760;23;20176;-65
2023/06/01 12:32:12;;;;;;;4.65;3.10;;;;;;;23.50;44.93;102101.78;5190953;23;20022;-60
2023/06/01 12:34:39;;;;;;;3.72;3.30;;;;;;;23.51;47.18;102099.09;5281290;23;22224;-60
2023/06/01 12:37:12;;;;;;;4.05;3.03;;;;;;;23.67;44.46;102098.94;5297079;23;20545;-59
2023/06/01 12:39:37;;;;;;;4.13;3.15;;;;;;;23.54;47.58;102095.53;4977244;28;20109;-59
2023/06/01 12:42:05;;;;;;;3.38;2.97;;;;;;;23.68;46.60;102088.28;4978478;28;20056;-59
2023/06/01 12:44:31;;;;;;;4.28;2.88;;;;;;;23.93;46.24;102096.00;5141860;23;20067;-60
2023/06/01 12:46:58;;;;;;;4.22;3.50;;;;;;;24.06;43.68;102088.75;5341828;23;20062;-60
2023/06/01 12:54:30;;;;;;;4.00;2.97;;;;;;;23.70;45.07;102090.91;5241136;23;20063;-60
2023/06/01 13:01:59;;;;;;;3.97;3.35;;;;;;;23.75;44.56;102095.28;5306338;23;20082;-60
2023/06/01 13:04:25;;;;;;;3.53;3.20;;;;;;;23.55;44.64;102092.84;5121449;23;20641;-61
2023/06/01 13:09:25;;;;;;;4.07;3.45;;;;;;;23.47;45.04;102089.38;5188937;23;20070;-58
2023/06/01 13:11:51;;;;;;;4.00;2.90;;;;;;;23.71;46.15;102087.34;5370300;23;21072;-58
2023/06/01 13:19:15;;;;;;;3.40;2.97;;;;;;;23.81;45.69;102082.78;5215400;23;20029;-58
2023/06/01 13:21:40;;;;;;;3.67;2.88;;;;;;;24.09;45.51;102086.91;5366362;23;20018;-60
2023/06/01 13:31:37;;;;;;;4.78;3.13;;;;;;;23.65;41.33;102083.00;5259060;23;20137;-59
2023/06/01 13:34:03;;;;;;;3.78;3.17;;;;;;;23.33;43.67;102092.16;5177879;23;20051;-59
2023/06/01 13:36:29;;;;;;;4.95;2.97;;;;;;;23.17;44.06;102090.56;4979693;28;20641;-59
2023/06/01 13:38:54;;;;;;;3.88;2.90;;;;;;;23.49;46.32;102084.03;4979098;28;20034;-59
2023/06/01 13:41:19;;;;;;;4.03;3.10;;;;;;;23.73;45.39;102077.56;4981417;28;20052;-59
2023/06/01 13:43:46;;;;;;;6.03;3.28;;;;;;;24.06;44.42;102084.28;5148453;23;20238;-60
2023/06/01 13:46:11;;;;;;;5.82;3.30;;;;;;;24.08;44.51;102081.59;4951784;28;20399;-59
2023/06/01 13:51:09;;;;;;;4.05;2.70;;;;;;;24.11;45.38;102077.13;4961999;28;20069;-60
2023/06/01 13:53:34;;;;;;;4.22;3.08;;;;;;;24.11;43.13;102065.59;5127812;23;20522;-60
2023/06/01 13:56:00;;;;;;;4.05;2.60;;;;;;;24.01;44.72;102070.13;5139463;23;20054;-59
2023/06/01 13:58:25;;;;;;;3.10;2.20;;;;;;;23.98;45.34;102064.84;5349311;23;20081;-59
2023/06/01 14:00:51;;;;;;;3.17;2.40;;;;;;;24.16;46.24;102062.84;5160901;23;1146483;-59
2023/06/01 14:03:16;;;;;;;4.35;2.45;;;;;;;24.22;43.28;102063.66;5186062;23;20110;-59
2023/06/01 14:05:41;;;;;;;3.60;2.20;;;;;;;24.06;43.87;102065.66;5087159;23;20061;-59
2023/06/01 14:08:07;;;;;;;2.97;2.08;;;;;;;23.83;46.05;102065.03;5275859;23;20058;-60
2023/06/01 14:10:34;;;;;;;2.88;1.90;;;;;;;23.75;44.33;102058.03;5259977;23;20054;-61
2023/06/01 14:17:59;;;;;;;3.53;2.15;;;;;;;24.26;44.64;102067.13;5304769;23;20033;-60
2023/06/01 14:20:24;;;;;;;3.08;2.08;;;;;;;24.29;44.21;102067.13;5230995;23;20066;-60
2023/06/01 14:22:49;;;;;;;4.18;2.10;;;;;;;24.01;43.01;102062.16;5134827;23;20061;-60
2023/06/01 14:25:15;;;;;;;4.78;2.00;;;;;;;23.46;44.20;102070.78;4974136;28;20077;-60
2023/06/01 14:30:16;;;;;;;2.42;1.83;;;;;;;23.05;46.06;102060.47;5062704;23;20063;-59
2023/06/01 14:32:41;;;;;;;3.13;2.15;;;;;;;23.08;46.26;102060.44;5266106;23;21135;-60
2023/06/01 14:37:32;;;;;;;4.35;2.40;;;;;;;22.75;47.21;102061.63;5294335;23;20058;-60
2023/06/01 14:45:02;;;;;;;4.32;2.28;;;;;;;22.06;49.41;102058.47;5161623;23;20065;-59
2023/06/01 14:47:27;;;;;;;2.97;2.25;;;;;;;22.00;52.25;102058.53;4960781;28;20030;-59
2023/06/01 14:49:53;;;;;;;3.13;2.37;;;;;;;22.14;49.89;102053.13;5161380;23;21103;-59
2023/06/01 14:52:18;;;;;;;5.05;2.50;;;;;;;22.08;50.26;102062.91;5180484;23;20336;-59
2023/06/01 14:54:44;;;;;;;3.10;2.05;;;;;;;22.05;50.06;102053.19;5186874;23;20034;-59
2023/06/01 14:57:09;;;;;;;3.42;2.05;;;;;;;22.01;51.33;102049.66;5243856;23;20127;-59
2023/06/01 14:59:36;;;;;;;3.47;2.00;;;;;;;21.95;50.74;102047.03;4978015;28;20490;-59
2023/06/01 15:02:03;;;;;;;3.08;2.10;;;;;;;21.88;49.91;102061.22;5213794;23;20057;-59
2023/06/01 15:04:30;;;;;;;3.42;1.80;;;;;;;22.14;51.09;102049.59;5178086;23;20027;-59
2023/06/01 15:06:55;;;;;;;3.78;2.10;;;;;;;22.19;48.06;102051.34;5133795;23;20054;-59
2023/06/01 15:09:20;;;;;;;3.80;2.20;;;;;;;22.26;49.67;102052.19;5058117;23;20064;-59
2023/06/01 15:11:45;;;;;;;4.15;2.20;;;;;;;22.24;48.87;102053.97;5444232;23;20145;-60
2023/06/01 15:19:13;;;;;;;3.67;1.83;;;;;;;22.10;50.23;102062.03;5303266;23;21129;-59
2023/06/01 15:24:07;;;;;;;2.80;2.00;;;;;;;21.98;49.87;102068.25;5104215;23;20149;-60
2023/06/01 15:26:32;;;;;;;3.65;1.90;;;;;;;21.73;49.95;102055.97;4959249;28;20422;-60
2023/06/01 15:31:33;;;;;;;3.15;2.10;;;;;;;20.87;51.44;102062.25;5261893;23;20036;-59
2023/06/01 15:36:24;;;;;;;3.40;2.17;;;;;;;20.53;53.96;102063.06;5054771;23;20054;-59
2023/06/01 15:41:14;;;;;;;3.25;2.20;;;;;;;20.21;52.88;102060.38;5057897;23;20391;-59
2023/06/01 15:43:39;;;;;;;2.85;1.83;;;;;;;20.32;54.17;102058.63;4964047;28;20026;-60
2023/06/01 15:46:05;;;;;;;3.63;1.90;;;;;;;20.34;56.42;102056.84;5027597;23;20059;-59
2023/06/01 15:48:31;;;;;;;3.95;1.90;;;;;;;20.45;53.81;102054.22;5231648;23;20050;-59
2023/06/01 15:50:57;;;;;;;3.05;1.85;;;;;;;20.35;54.96;102049.78;5356496;23;20881;-60
2023/06/01 15:53:22;;;;;;;3.05;2.00;;;;;;;20.00;55.91;102047.94;4957648;28;20038;-59
2023/06/01 15:55:49;;;;;;;2.72;1.70;;;;;;;19.86;54.87;102039.97;5138476;23;20129;-59
2023/06/01 15:58:14;;;;;;;5.68;2.30;;;;;;;19.83;55.23;102053.13;5153999;23;20350;-66
2023/06/01 16:05:50;;;;;;;3.05;1.60;;;;;;;19.69;58.50;102040.72;5170364;23;20070;-66
2023/06/01 16:08:15;;;;;;;2.33;1.60;;;;;;;19.70;55.35;102042.50;5081011;23;20066;-59
2023/06/01 16:10:41;;;;;;;2.63;1.55;;;;;;;19.49;55.78;102035.31;4958851;28;20071;-59
2023/06/01 16:15:36;;;;;;;;;;;;;;;19.41;56.72;102031.75;4955613;28;20428;-58
2023/06/01 16:18:01;;;;;;;3.20;1.40;;;;;;;19.48;58.28;102046.78;5079164;23;20108;-66
2023/06/01 16:20:26;;;;;;;2.58;1.50;;;;;;;19.60;56.82;102030.97;5118093;23;20054;-59
2023/06/01 16:22:51;;;;;;;2.38;1.50;;;;;;;19.63;56.98;102038.91;5120796;23;20111;-59
2023/06/01 16:25:22;;;;;;;3.50;1.40;;;;;;;19.64;58.19;102034.53;5152270;23;20047;-58
2023/06/01 16:27:49;;;;;;;2.90;1.60;;;;;;;19.77;57.71;102036.34;4948033;28;20226;-59
2023/06/01 16:30:14;;;;;;;3.03;1.50;;;;;;;19.76;56.07;102037.22;5180176;23;20079;-59
2023/06/01 16:32:40;;;;;;;1.30;1.10;;;;;;;19.63;57.25;102030.97;5078685;23;20516;-59
2023/06/01 16:40:10;;;;;;;1.85;1.23;;;;;;;19.77;56.82;102036.34;5155061;23;20059;-59
2023/06/01 16:42:35;;;;;;;2.20;1.40;;;;;;;19.62;55.41;102028.34;5092028;23;20065;-59
2023/06/01 16:45:09;;;;;;;2.17;1.37;;;;;;;19.29;58.12;102036.09;5161502;23;20042;31
2023/06/01 16:47:34;;;;;;;1.77;1.30;;;;;;;19.08;57.39;102031.53;5013809;23;20343;-59
2023/06/01 16:52:30;;;;;;;1.80;1.10;;;;;;;18.98;58.45;102034.09;5250315;23;20032;-63
2023/06/01 16:54:56;;;;;;;1.80;1.20;;;;;;;18.84;57.59;102028.66;5279223;23;20573;-58
2023/06/01 16:57:32;;;;;;;2.20;1.10;;;;;;;18.65;57.95;102036.41;5073202;23;20110;-96
2023/06/01 17:00:24;;;;;;;1.48;1.00;;;;;;;18.39;58.21;102028.25;4999205;28;20034;-96
2023/06/01 17:03:32;;;;;;;1.90;1.20;;;;;;;18.25;59.73;102026.38;5005898;28;20126;-96
2023/06/01 17:06:25;;;;;;;;;;;;;;;;;;;;;
2023/06/01 17:09:03;;;;;;;2.17;1.00;;;;;;;18.01;60.06;102023.44;5019173;28;20540;-96